Time;durP1;ratioP1;P1;durP2;ratioP2;P2;SDS_P1;SDS_P2;PMS_P1;PMS_P2;Temp;Humidity;BMP_temperature;BMP_pressure;BME280_temperature;BME280_humidity;BME280_pressure;Samples;Min_cycle;Max_cycle;Signal;HPM_P1;HPM_P2
2022/06/15 00:01:06;;;;;;;3.63;2.80;;;16.90;99.90;;;;;;5096429;28;20212;-62
2022/06/15 00:03:37;;;;;;;5.13;2.90;;;16.80;99.90;;;;;;5096203;28;20224;-62
2022/06/15 00:06:07;;;;;;;5.57;3.47;;;16.80;99.90;;;;;;5096553;28;20209;-62
2022/06/15 00:08:34;;;;;;;7.85;3.00;;;16.70;99.90;;;;;;5096553;28;20200;-61
2022/06/15 00:11:08;;;;;;;5.63;3.03;;;16.60;99.90;;;;;;5096146;28;20200;-61
2022/06/15 00:13:35;;;;;;;4.23;2.87;;;16.60;99.90;;;;;;5095930;28;20211;-61
2022/06/15 00:16:01;;;;;;;5.80;2.67;;;16.50;99.90;;;;;;5096153;28;20200;-61
2022/06/15 00:18:28;;;;;;;2.63;2.42;;;16.40;99.90;;;;;;5095444;28;20208;-61
2022/06/15 00:20:56;;;;;;;4.83;2.50;;;16.50;99.90;;;;;;5095519;28;20672;-61
2022/06/15 00:23:24;;;;;;;4.23;2.60;;;16.50;99.90;;;;;;5095172;28;20239;-61
2022/06/15 00:25:51;;;;;;;6.40;2.97;;;16.50;99.90;;;;;;5095793;28;20230;-61
2022/06/15 00:28:19;;;;;;;7.53;3.17;;;16.50;99.90;;;;;;5095616;28;20624;-61
2022/06/15 00:30:49;;;;;;;4.07;2.80;;;16.50;99.90;;;;;;5095448;28;20208;-61
2022/06/15 00:33:19;;;;;;;4.40;2.87;;;16.50;99.90;;;;;;5095748;28;20196;-61
2022/06/15 00:35:51;;;;;;;3.83;2.80;;;16.40;99.90;;;;;;5095755;28;20209;-61
2022/06/15 00:38:18;;;;;;;4.10;2.83;;;16.30;99.90;;;;;;5095402;28;20635;-61
2022/06/15 00:40:46;;;;;;;6.33;3.07;;;16.30;99.90;;;;;;5095677;28;20683;-60
2022/06/15 00:43:13;;;;;;;4.47;2.60;;;16.20;99.90;;;;;;5095651;28;20598;-61
2022/06/15 00:45:40;;;;;;;4.87;2.77;;;16.30;99.90;;;;;;5095838;28;20212;-60
2022/06/15 00:48:08;;;;;;;4.47;2.80;;;16.30;99.90;;;;;;5096773;28;20204;-61
2022/06/15 00:50:35;;;;;;;4.27;2.67;;;16.30;99.90;;;;;;5095812;28;20700;-62
2022/06/15 00:53:07;;;;;;;4.37;2.97;;;16.20;99.90;;;;;;5096552;28;20196;-61
2022/06/15 00:55:36;;;;;;;6.33;3.27;;;16.20;99.90;;;;;;5096228;28;20208;-61
2022/06/15 00:58:08;;;;;;;3.33;2.80;;;16.00;99.90;;;;;;5096086;28;20211;-61
2022/06/15 01:00:36;;;;;;;5.70;3.40;;;15.90;99.90;;;;;;5095487;28;20681;-61
2022/06/15 01:03:03;;;;;;;5.57;3.20;;;15.90;99.90;;;;;;5096023;28;20228;-61
2022/06/15 01:05:41;;;;;;;4.13;3.00;;;15.80;99.90;;;;;;5095648;28;20207;-61
2022/06/15 01:08:19;;;;;;;3.97;2.73;;;15.70;99.90;;;;;;5095625;28;20211;-61
2022/06/15 01:11:06;;;;;;;5.43;3.47;;;15.60;99.90;;;;;;5094897;28;20211;-61
2022/06/15 01:13:52;;;;;;;7.00;2.80;;;15.30;99.90;;;;;;5095872;28;20204;-62
2022/06/15 01:16:33;;;;;;;4.80;3.00;;;15.10;99.90;;;;;;5095452;28;20215;-60
2022/06/15 01:19:10;;;;;;;5.47;3.10;;;14.90;99.90;;;;;;5095149;28;20251;-60
2022/06/15 01:21:44;;;;;;;5.17;3.20;;;14.90;99.90;;;;;;5095136;28;20223;-61
2022/06/15 01:24:32;;;;;;;6.10;3.10;;;14.80;99.90;;;;;;5095333;28;20224;-60
2022/06/15 01:27:45;;;;;;;3.53;3.00;;;14.80;99.90;;;;;;5095525;28;20250;-60
2022/06/15 01:30:29;;;;;;;4.57;3.03;;;14.90;99.90;;;;;;5094189;28;20232;-60
2022/06/15 01:33:07;;;;;;;7.60;3.03;;;15.10;99.90;;;;;;5095042;28;20587;-60
2022/06/15 01:35:43;;;;;;;4.73;3.07;;;15.10;99.90;;;;;;5095089;28;20214;-60
2022/06/15 01:38:26;;;;;;;7.27;3.13;;;15.10;99.90;;;;;;5095247;28;20204;-62
2022/06/15 01:41:00;;;;;;;4.93;2.80;;;15.10;99.90;;;;;;5095254;28;20686;-62
2022/06/15 01:43:31;;;;;;;5.00;2.83;;;15.00;99.90;;;;;;5095247;28;20232;-62
2022/06/15 01:46:00;;;;;;;7.20;3.10;;;15.00;99.90;;;;;;5095218;28;20212;-62
2022/06/15 01:48:29;;;;;;;8.33;3.03;;;15.00;99.90;;;;;;5094777;28;20207;-60
2022/06/15 01:51:02;;;;;;;4.00;2.60;;;15.00;99.90;;;;;;5095443;28;20676;-61
2022/06/15 01:53:35;;;;;;;3.70;2.77;;;15.10;99.90;;;;;;5095289;28;20204;-60
2022/06/15 01:56:07;;;;;;;3.83;2.80;;;15.10;99.90;;;;;;5095246;28;20196;-60
2022/06/15 01:58:37;;;;;;;4.70;2.80;;;15.20;99.90;;;;;;5095057;28;20211;-60
2022/06/15 02:01:13;;;;;;;4.90;2.90;;;15.20;99.90;;;;;;5094965;28;20568;-60
2022/06/15 02:03:47;;;;;;;3.83;2.83;;;15.40;99.90;;;;;;5095782;28;20228;-61
2022/06/15 02:06:22;;;;;;;4.57;3.33;;;15.40;99.90;;;;;;5095763;28;20253;-61
2022/06/15 02:08:53;;;;;;;6.13;3.00;;;15.40;99.90;;;;;;5096749;28;20242;-60
2022/06/15 02:11:24;;;;;;;5.37;2.90;;;15.40;99.90;;;;;;5094066;28;20246;-62
2022/06/15 02:13:55;;;;;;;3.80;2.73;;;15.40;99.90;;;;;;5093736;28;20192;-61
2022/06/15 02:16:27;;;;;;;4.87;3.00;;;15.40;99.90;;;;;;5093906;28;20212;-61
2022/06/15 02:18:56;;;;;;;4.20;3.00;;;15.50;99.90;;;;;;5093834;28;20224;-62
2022/06/15 02:21:25;;;;;;;5.67;2.93;;;15.50;99.90;;;;;;5093680;28;20208;-62
2022/06/15 02:23:56;;;;;;;6.50;3.30;;;15.60;99.90;;;;;;5093573;28;20232;-61
2022/06/15 02:26:26;;;;;;;6.07;3.30;;;15.60;99.90;;;;;;5093581;28;20736;-62
2022/06/15 02:28:57;;;;;;;4.57;2.93;;;15.60;99.90;;;;;;5093514;28;20223;-62
2022/06/15 02:31:26;;;;;;;5.00;3.03;;;15.60;99.90;;;;;;5093106;28;20265;-62
2022/06/15 02:33:56;;;;;;;3.43;2.60;;;15.70;99.90;;;;;;5093374;28;20200;-62
2022/06/15 02:36:24;;;;;;;4.10;2.90;;;15.70;99.90;;;;;;5093768;28;20561;-62
2022/06/15 02:38:51;;;;;;;4.00;3.10;;;15.70;99.90;;;;;;5093711;28;20224;-61
2022/06/15 02:41:20;;;;;;;5.07;3.13;;;15.70;99.90;;;;;;5093028;28;20646;-61
2022/06/15 02:43:48;;;;;;;5.00;3.20;;;15.70;99.90;;;;;;5096279;28;20224;-61
2022/06/15 02:46:17;;;;;;;3.33;2.47;;;15.70;99.90;;;;;;5097034;28;20204;-62
2022/06/15 02:48:46;;;;;;;4.37;2.97;;;15.70;99.90;;;;;;5096576;28;20255;-61
2022/06/15 02:51:18;;;;;;;3.57;2.90;;;15.60;99.90;;;;;;5096590;28;20208;-62
2022/06/15 02:53:47;;;;;;;6.13;3.07;;;15.40;99.90;;;;;;5097096;28;20211;-62
2022/06/15 02:56:16;;;;;;;4.40;2.90;;;15.30;99.90;;;;;;5098164;28;20204;-62
2022/06/15 02:58:46;;;;;;;4.50;2.90;;;15.20;99.90;;;;;;5097313;28;20224;-61
2022/06/15 03:01:13;;;;;;;4.83;3.10;;;15.20;99.90;;;;;;5096888;28;20243;-61
2022/06/15 03:03:40;;;;;;;4.70;2.87;;;15.00;99.90;;;;;;5097766;28;20229;-61
2022/06/15 03:06:10;;;;;;;4.70;3.10;;;14.80;99.90;;;;;;5098123;28;20204;-61
2022/06/15 03:08:37;;;;;;;4.63;2.80;;;14.60;99.90;;;;;;5098497;28;20224;-61
2022/06/15 03:11:04;;;;;;;4.27;3.10;;;14.50;99.90;;;;;;5097955;28;20208;-62
2022/06/15 03:13:31;;;;;;;6.83;3.20;;;14.40;99.90;;;;;;5097936;28;20200;-61
2022/06/15 03:15:59;;;;;;;8.33;3.67;;;14.40;99.90;;;;;;5098205;28;20212;-62
2022/06/15 03:18:26;;;;;;;4.47;3.30;;;14.30;99.90;;;;;;5097881;28;20281;-64
2022/06/15 03:20:56;;;;;;;3.83;3.03;;;14.20;99.90;;;;;;5098458;28;20610;-61
2022/06/15 03:23:24;;;;;;;8.73;3.20;;;14.20;99.90;;;;;;5098919;28;20699;-62
2022/06/15 03:25:53;;;;;;;5.63;3.33;;;14.10;99.90;;;;;;5098985;28;20287;-61
2022/06/15 03:28:20;;;;;;;5.97;3.00;;;14.10;99.90;;;;;;5097710;28;20204;-62
2022/06/15 03:30:47;;;;;;;4.77;3.37;;;14.00;99.90;;;;;;5097553;28;20211;-62
2022/06/15 03:33:14;;;;;;;5.50;3.30;;;13.90;99.90;;;;;;5097697;28;20621;-62
2022/06/15 03:35:41;;;;;;;4.83;2.90;;;13.80;99.90;;;;;;5098111;28;20214;-61
2022/06/15 03:38:09;;;;;;;4.80;3.10;;;13.90;99.90;;;;;;5097892;28;20295;-62
2022/06/15 03:40:38;;;;;;;4.20;3.33;;;13.90;99.90;;;;;;5097412;28;20629;-61
2022/06/15 03:43:05;;;;;;;5.07;3.00;;;13.90;99.90;;;;;;5097538;28;20284;-62
2022/06/15 03:45:32;;;;;;;4.13;3.30;;;13.90;99.90;;;;;;5097379;28;20205;-62
2022/06/15 03:47:59;;;;;;;4.17;3.13;;;13.90;99.90;;;;;;5097288;28;20204;-61
2022/06/15 03:50:28;;;;;;;6.07;3.10;;;13.90;99.90;;;;;;5096674;28;20583;-61
2022/06/15 03:52:55;;;;;;;6.77;3.40;;;14.00;99.90;;;;;;5096390;28;20203;-61
2022/06/15 03:55:22;;;;;;;6.20;3.13;;;13.90;99.90;;;;;;5096378;28;20660;-61
2022/06/15 03:57:51;;;;;;;6.37;2.93;;;14.00;99.90;;;;;;5097123;28;20235;-61
2022/06/15 04:00:21;;;;;;;4.93;3.23;;;14.10;99.90;;;;;;5096542;28;20235;-61
2022/06/15 04:02:47;;;;;;;5.33;3.00;;;14.10;99.90;;;;;;5096855;28;20208;-61
2022/06/15 04:05:17;;;;;;;6.40;3.20;;;14.20;99.90;;;;;;5097167;28;20287;-61
2022/06/15 04:10:28;;;;;;;5.03;3.67;;;14.40;99.90;;;;;;5097448;28;20234;-61
2022/06/15 04:12:56;;;;;;;5.70;3.03;;;14.50;99.90;;;;;;5097748;28;20208;-61
2022/06/15 04:15:23;;;;;;;4.50;3.10;;;14.60;99.90;;;;;;5096974;28;20218;-62
2022/06/15 04:17:50;;;;;;;6.17;3.30;;;14.60;99.90;;;;;;5096524;28;20207;-61
2022/06/15 04:20:33;;;;;;;6.33;3.20;;;14.70;99.90;;;;;;5095955;28;20235;-61
2022/06/15 04:23:00;;;;;;;6.40;2.73;;;14.80;99.90;;;;;;5095950;28;20205;-61
2022/06/15 04:25:28;;;;;;;3.17;2.80;;;15.00;99.90;;;;;;5096322;28;20554;-60
2022/06/15 04:27:57;;;;;;;7.27;3.20;;;15.10;99.90;;;;;;5095573;28;20205;-61
2022/06/15 04:30:24;;;;;;;5.07;2.97;;;15.30;99.90;;;;;;5095207;28;20224;-61
2022/06/15 04:32:51;;;;;;;4.07;3.33;;;15.40;99.90;;;;;;5095773;28;20287;-62
2022/06/15 04:35:18;;;;;;;5.83;3.20;;;15.60;99.90;;;;;;5095725;28;20207;-61
2022/06/15 04:37:45;;;;;;;5.83;3.23;;;15.70;99.90;;;;;;5095488;28;20204;-61
2022/06/15 04:40:13;;;;;;;4.87;3.10;;;15.90;99.90;;;;;;5094730;28;20231;-62
2022/06/15 04:42:40;;;;;;;5.80;3.13;;;16.00;99.90;;;;;;5095406;28;20235;-62
2022/06/15 04:45:10;;;;;;;4.90;2.93;;;16.20;99.90;;;;;;5093851;28;20227;-61
2022/06/15 04:47:37;;;;;;;6.20;2.78;;;17.10;99.90;;;;;;5093766;28;20208;-61
2022/06/15 04:50:05;;;;;;;3.90;2.70;;;18.90;99.90;;;;;;5093801;28;20224;-62
2022/06/15 04:52:33;;;;;;;4.00;2.30;;;21.10;99.90;;;;;;5093882;28;20201;-62
2022/06/15 04:54:59;;;;;;;6.72;2.60;;;23.20;99.90;;;;;;5093714;28;20200;-62
2022/06/15 04:57:26;;;;;;;5.78;2.75;;;25.10;98.60;;;;;;5093456;28;20289;-62
2022/06/15 04:59:53;;;;;;;5.28;2.72;;;26.80;93.30;;;;;;5093550;28;20589;-61
2022/06/15 05:02:21;;;;;;;6.18;2.58;;;28.10;86.00;;;;;;5093388;28;20211;-61
2022/06/15 05:04:49;;;;;;;4.35;2.47;;;29.10;78.90;;;;;;5092577;28;20775;-61
2022/06/15 05:07:16;;;;;;;4.57;2.40;;;30.00;73.10;;;;;;5093521;28;20204;-61
2022/06/15 05:09:47;;;;;;;4.50;2.65;;;30.80;68.60;;;;;;5093329;28;20242;-61
2022/06/15 05:12:14;;;;;;;3.72;2.42;;;31.60;65.70;;;;;;5093183;28;20600;-61
2022/06/15 05:14:41;;;;;;;3.97;2.55;;;32.10;63.20;;;;;;5093020;28;20287;-61
2022/06/15 05:17:07;;;;;;;6.47;2.80;;;32.70;60.20;;;;;;5093403;28;20681;-62
2022/06/15 05:19:36;;;;;;;4.85;2.42;;;33.10;58.50;;;;;;5092802;28;20227;-62
2022/06/15 05:22:02;;;;;;;5.97;2.60;;;33.80;56.80;;;;;;5092679;28;20676;-62
2022/06/15 05:24:29;;;;;;;6.20;2.38;;;34.50;54.40;;;;;;5092842;28;20215;-61
2022/06/15 05:26:56;;;;;;;4.32;2.40;;;35.00;53.10;;;;;;5092920;28;20679;-61
2022/06/15 05:29:23;;;;;;;3.20;2.40;;;35.30;52.20;;;;;;5092684;28;20224;-61
2022/06/15 05:31:50;;;;;;;6.38;2.40;;;35.50;50.40;;;;;;5092688;28;20208;-62
2022/06/15 05:34:17;;;;;;;5.72;2.53;;;35.40;50.50;;;;;;5092952;28;20600;-62
2022/06/15 05:36:45;;;;;;;6.93;2.50;;;35.70;49.70;;;;;;5092831;28;20215;-61
2022/06/15 05:39:13;;;;;;;5.70;2.20;;;35.90;48.80;;;;;;5092717;28;20230;-61
2022/06/15 05:41:39;;;;;;;6.03;2.25;;;36.40;48.60;;;;;;5092521;28;20680;-61
2022/06/15 05:44:07;;;;;;;5.75;2.83;;;37.10;47.20;;;;;;5092398;28;20220;-62
2022/06/15 05:46:35;;;;;;;3.72;2.50;;;37.90;45.90;;;;;;5092936;28;20200;-61
2022/06/15 05:49:04;;;;;;;3.45;2.20;;;38.50;44.60;;;;;;5092717;28;20228;-62
2022/06/15 05:51:31;;;;;;;4.65;2.60;;;38.80;43.60;;;;;;5092202;28;20204;-62
2022/06/15 05:54:00;;;;;;;4.63;2.72;;;38.80;43.50;;;;;;5092540;28;20196;-62
2022/06/15 05:56:27;;;;;;;3.00;2.17;;;39.00;42.70;;;;;;5092276;28;20660;-63
2022/06/15 05:58:54;;;;;;;2.78;2.30;;;39.00;42.50;;;;;;5092139;28;20587;-61
2022/06/15 06:01:25;;;;;;;3.08;2.20;;;39.00;42.30;;;;;;5092357;28;20211;-62
2022/06/15 06:03:52;;;;;;;4.20;2.45;;;38.80;42.10;;;;;;5092308;28;20259;-61
2022/06/15 06:06:18;;;;;;;4.28;2.50;;;38.70;42.00;;;;;;5092529;28;20200;-61
2022/06/15 06:08:45;;;;;;;4.28;2.42;;;38.60;41.30;;;;;;5092129;28;20285;-61
2022/06/15 06:11:14;;;;;;;6.82;2.35;;;38.60;41.80;;;;;;5091880;28;20223;-61
2022/06/15 06:13:41;;;;;;;6.53;2.35;;;38.80;41.80;;;;;;5092540;28;20208;-62
2022/06/15 06:16:08;;;;;;;4.50;2.33;;;39.10;41.50;;;;;;5092561;28;20204;-62
2022/06/15 06:18:35;;;;;;;4.60;2.30;;;39.10;41.10;;;;;;5096635;28;20215;-62
2022/06/15 06:21:01;;;;;;;3.97;2.22;;;39.20;41.20;;;;;;5096572;28;20215;-61
2022/06/15 06:23:29;;;;;;;5.45;2.83;;;39.20;40.60;;;;;;5096362;28;20581;-61
2022/06/15 06:25:56;;;;;;;7.60;2.30;;;38.70;41.40;;;;;;5096690;28;20290;-61
2022/06/15 06:28:28;;;;;;;4.00;2.40;;;38.70;41.80;;;;;;5096602;28;20215;-62
2022/06/15 06:30:57;;;;;;;5.43;2.50;;;39.30;40.70;;;;;;5093437;28;20636;-61
2022/06/15 06:33:24;;;;;;;3.00;2.35;;;39.90;40.50;;;;;;5096399;28;20214;-63
2022/06/15 06:35:51;;;;;;;4.03;2.30;;;40.40;39.60;;;;;;5080867;28;20217;-65
2022/06/15 06:38:18;;;;;;;5.53;2.45;;;40.70;39.10;;;;;;5075468;28;20231;-62
2022/06/15 06:40:44;;;;;;;3.97;2.58;;;41.10;38.20;;;;;;5074830;28;20216;-62
2022/06/15 06:43:11;;;;;;;6.15;2.47;;;41.40;37.90;;;;;;5074902;28;20672;-61
2022/06/15 06:45:40;;;;;;;2.75;2.00;;;41.40;37.30;;;;;;5075127;28;20286;-61
2022/06/15 06:48:08;;;;;;;3.83;2.03;;;41.00;37.60;;;;;;5074942;28;20209;-61
2022/06/15 06:50:36;;;;;;;3.55;2.30;;;40.80;37.70;;;;;;5075675;28;20213;-63
2022/06/15 06:53:02;;;;;;;4.75;2.38;;;40.90;37.60;;;;;;5076491;28;20763;-63
2022/06/15 06:55:30;;;;;;;4.95;2.40;;;41.40;37.80;;;;;;5075745;28;20200;-61
2022/06/15 06:57:57;;;;;;;3.33;2.00;;;41.80;36.70;;;;;;5076349;28;20201;-63
2022/06/15 07:00:25;;;;;;;6.65;2.20;;;42.00;36.30;;;;;;5075297;28;20292;-63
2022/06/15 07:02:53;;;;;;;3.85;2.10;;;42.20;35.50;;;;;;5075332;28;20219;-61
2022/06/15 07:05:20;;;;;;;4.25;2.10;;;42.20;35.50;;;;;;5075745;28;20692;-62
2022/06/15 07:07:48;;;;;;;5.18;2.08;;;41.90;36.00;;;;;;5075827;28;20208;-62
2022/06/15 07:10:15;;;;;;;6.65;2.40;;;41.80;35.80;;;;;;5075838;28;20685;-63
2022/06/15 07:12:43;;;;;;;4.55;2.28;;;41.60;35.60;;;;;;5076850;28;20633;-62
2022/06/15 07:15:11;;;;;;;6.60;2.40;;;41.60;36.30;;;;;;5076565;28;20239;-62
2022/06/15 07:17:38;;;;;;;4.65;2.30;;;41.60;36.10;;;;;;5076696;28;20258;-62
2022/06/15 07:20:08;;;;;;;3.47;2.03;;;41.70;35.90;;;;;;5076482;28;20232;-63
2022/06/15 07:22:36;;;;;;;3.47;1.92;;;42.20;35.50;;;;;;5075963;28;20251;-62
2022/06/15 07:25:03;;;;;;;6.47;2.40;;;42.80;34.60;;;;;;5075584;28;20224;-63
2022/06/15 07:27:32;;;;;;;4.35;2.25;;;43.20;34.50;;;;;;5075165;28;20583;-64
2022/06/15 07:29:59;;;;;;;4.30;2.17;;;43.50;34.00;;;;;;5074800;28;20319;-63
2022/06/15 07:32:26;;;;;;;3.63;2.10;;;43.70;33.70;;;;;;5075127;28;20240;-62
2022/06/15 07:34:53;;;;;;;5.05;2.33;;;44.10;33.20;;;;;;5075275;28;20200;-64
2022/06/15 07:37:22;;;;;;;5.35;2.28;;;44.60;33.00;;;;;;5075353;28;20570;-63
2022/06/15 07:39:48;;;;;;;4.45;2.40;;;45.00;32.50;;;;;;5075196;28;20231;-63
2022/06/15 07:42:16;;;;;;;2.72;1.80;;;45.50;31.80;;;;;;5074978;28;20248;-62
2022/06/15 07:44:43;;;;;;;4.00;1.80;;;46.00;31.60;;;;;;5075299;28;20227;-63
2022/06/15 07:49:56;;;;;;;2.88;2.00;;;47.30;30.40;;;;;;5075585;28;20227;-63
2022/06/15 07:52:27;;;;;;;3.53;1.88;;;47.80;30.00;;;;;;5075129;28;20635;-64
2022/06/15 07:54:54;;;;;;;2.63;1.73;;;48.00;30.00;;;;;;5074965;28;20200;-63
2022/06/15 07:57:21;;;;;;;7.50;3.00;;;47.20;30.20;;;;;;5074760;28;20273;-63
2022/06/15 07:59:48;;;;;;;2.53;1.70;;;46.80;30.70;;;;;;5075012;28;20231;-63
2022/06/15 08:02:16;;;;;;;5.00;1.90;;;47.10;30.20;;;;;;5075252;28;20209;-64
2022/06/15 08:04:43;;;;;;;2.65;1.90;;;47.70;29.60;;;;;;5074667;28;20224;-63
2022/06/15 08:07:12;;;;;;;5.88;1.90;;;47.00;29.90;;;;;;5074578;28;20585;-62
2022/06/15 08:09:40;;;;;;;3.53;2.28;;;46.90;29.90;;;;;;5074348;28;20318;-62
2022/06/15 08:12:16;;;;;;;5.70;2.28;;;46.80;30.00;;;;;;5074230;28;20212;-64
2022/06/15 08:14:45;;;;;;;3.47;2.00;;;46.10;30.30;;;;;;5074521;28;20236;-63
2022/06/15 08:17:16;;;;;;;6.55;1.90;;;45.60;31.10;;;;;;5074470;28;20204;-63
2022/06/15 08:19:45;;;;;;;3.05;2.30;;;45.20;30.90;;;;;;5074358;28;20564;-64
2022/06/15 08:22:13;;;;;;;2.97;1.85;;;44.50;31.90;;;;;;5074184;28;20234;-64
2022/06/15 08:24:42;;;;;;;3.15;2.03;;;44.30;31.80;;;;;;5074389;28;20235;-63
2022/06/15 08:27:11;;;;;;;4.28;2.20;;;43.80;32.40;;;;;;5074826;28;20200;-62
2022/06/15 08:29:39;;;;;;;2.92;1.98;;;43.60;32.50;;;;;;5074471;28;20577;-62
2022/06/15 08:32:06;;;;;;;10.00;2.75;;;43.80;32.00;;;;;;5074463;28;20213;-63
2022/06/15 08:34:37;;;;;;;5.07;1.88;;;44.30;31.30;;;;;;5074077;28;20200;-64
2022/06/15 08:37:04;;;;;;;4.35;2.05;;;44.60;31.30;;;;;;5074332;28;20208;-63
2022/06/15 08:39:31;;;;;;;2.95;1.90;;;44.50;31.70;;;;;;5074086;28;20731;-63
2022/06/15 08:42:18;;;;;;;3.10;2.03;;;43.50;32.60;;;;;;5074324;28;20204;-63
2022/06/15 08:44:56;;;;;;;2.70;2.00;;;43.20;32.70;;;;;;5074090;28;20711;-63
2022/06/15 08:47:41;;;;;;;4.10;2.17;;;43.10;32.80;;;;;;5073749;28;20240;-63
2022/06/15 08:50:12;;;;;;;4.63;2.30;;;43.20;32.70;;;;;;5073681;28;20732;-63
2022/06/15 08:52:42;;;;;;;3.55;2.17;;;42.70;34.00;;;;;;5074031;28;20204;-64
2022/06/15 08:55:19;;;;;;;3.20;2.00;;;41.60;35.20;;;;;;5074510;28;20258;-64
2022/06/15 08:57:52;;;;;;;5.82;2.20;;;39.50;36.70;;;;;;5073988;28;20219;-63
2022/06/15 09:00:23;;;;;;;8.15;2.50;;;37.20;39.30;;;;;;5073941;28;20228;-63
2022/06/15 09:03:02;;;;;;;8.05;2.53;;;35.60;41.50;;;;;;5074503;28;20208;-64
2022/06/15 09:05:39;;;;;;;5.75;2.22;;;33.90;44.10;;;;;;5073622;28;20703;-65
2022/06/15 09:08:23;;;;;;;7.78;2.30;;;32.70;46.30;;;;;;5074322;28;20212;-62
2022/06/15 09:10:52;;;;;;;5.32;2.67;;;31.80;47.40;;;;;;5074663;28;20639;-63
2022/06/15 09:13:43;;;;;;;6.00;2.60;;;31.30;48.60;;;;;;5074655;28;20275;-63
2022/06/15 09:16:19;;;;;;;7.07;3.92;;;30.60;49.30;;;;;;5074365;28;20208;-63
2022/06/15 09:18:51;;;;;;;3.75;2.53;;;30.20;50.70;;;;;;5074143;28;20704;-61
2022/06/15 09:21:23;;;;;;;4.95;2.40;;;29.90;51.60;;;;;;5073847;28;20205;-63
2022/06/15 09:23:54;;;;;;;5.32;2.45;;;29.80;51.80;;;;;;5074520;28;20209;-63
2022/06/15 09:26:35;;;;;;;3.72;2.45;;;29.70;51.30;;;;;;5073751;28;20239;-63
2022/06/15 09:29:07;;;;;;;4.40;2.47;;;29.60;51.50;;;;;;5073895;28;20719;-63
2022/06/15 09:31:41;;;;;;;5.55;2.50;;;29.50;54.00;;;;;;5073893;28;20209;-62
2022/06/15 09:34:13;;;;;;;3.78;2.30;;;29.40;53.20;;;;;;5074188;28;20212;-62
2022/06/15 09:36:47;;;;;;;3.40;2.30;;;29.40;53.00;;;;;;5073486;28;20212;-62
2022/06/15 09:39:14;;;;;;;2.63;2.20;;;29.30;53.20;;;;;;5072967;28;20315;-62
2022/06/15 09:41:48;;;;;;;4.65;2.33;;;29.20;52.10;;;;;;5073102;28;20205;-63
2022/06/15 09:44:25;;;;;;;5.80;2.30;;;28.90;53.20;;;;;;5074248;28;20220;-62
2022/06/15 09:46:59;;;;;;;5.38;2.20;;;28.70;53.60;;;;;;5073716;28;20211;-63
2022/06/15 09:49:40;;;;;;;4.38;2.42;;;28.70;53.20;;;;;;5073333;28;20229;-63
2022/06/15 09:52:16;;;;;;;3.90;1.90;;;28.70;54.30;;;;;;5072833;28;20208;-62
2022/06/15 09:54:53;;;;;;;3.40;2.05;;;28.70;54.30;;;;;;5073583;28;20211;-63
2022/06/15 09:57:20;;;;;;;4.63;2.22;;;28.70;53.20;;;;;;5073960;28;20189;-64
2022/06/15 09:59:48;;;;;;;5.72;2.60;;;28.90;53.40;;;;;;5073376;28;20252;-63
2022/06/15 10:02:23;;;;;;;2.78;1.73;;;28.90;52.80;;;;;;5073229;28;20212;-63
2022/06/15 10:04:50;;;;;;;3.83;2.20;;;28.90;50.40;;;;;;5072798;28;20192;-63
2022/06/15 10:07:25;;;;;;;5.53;2.25;;;29.10;50.40;;;;;;5072747;28;20212;-63
2022/06/15 10:09:55;;;;;;;3.40;2.08;;;29.10;52.30;;;;;;5072905;28;20232;-63
2022/06/15 10:12:57;;;;;;;4.57;1.95;;;28.90;52.70;;;;;;5073083;28;20197;-63
2022/06/15 10:15:29;;;;;;;2.58;1.73;;;28.80;53.00;;;;;;5073735;28;20204;-63
2022/06/15 10:18:00;;;;;;;7.78;2.33;;;28.90;51.80;;;;;;5073635;28;20204;-62
2022/06/15 10:20:32;;;;;;;3.25;2.00;;;29.00;51.30;;;;;;5073752;28;20229;-62
2022/06/15 10:23:04;;;;;;;4.57;2.10;;;29.00;52.00;;;;;;5073678;28;20258;-63
2022/06/15 10:25:36;;;;;;;2.53;1.77;;;29.10;51.60;;;;;;5073216;28;20225;-63
2022/06/15 10:28:14;;;;;;;4.60;3.00;;;29.30;51.20;;;;;;5073264;28;20288;-63
2022/06/15 10:30:52;;;;;;;3.38;2.00;;;29.40;52.50;;;;;;5072968;28;20224;-63
2022/06/15 10:33:19;;;;;;;3.10;1.98;;;29.40;52.70;;;;;;5073098;28;20224;-63
2022/06/15 10:35:51;;;;;;;5.80;2.03;;;29.50;52.30;;;;;;5073088;28;20308;-62
2022/06/15 10:38:18;;;;;;;2.90;1.80;;;29.40;52.20;;;;;;5072808;28;20650;-62
2022/06/15 10:40:55;;;;;;;4.03;2.08;;;29.40;51.60;;;;;;5072344;28;20208;-62
2022/06/15 10:43:28;;;;;;;2.38;1.50;;;29.50;51.00;;;;;;5072422;28;20293;-63
2022/06/15 10:46:02;;;;;;;3.65;2.05;;;29.60;50.30;;;;;;5072337;28;20319;-62
2022/06/15 10:48:33;;;;;;;3.08;2.13;;;29.70;50.50;;;;;;5072669;28;20204;-62
2022/06/15 10:51:05;;;;;;;5.40;1.90;;;29.70;50.80;;;;;;5072264;28;20269;-63
2022/06/15 10:53:39;;;;;;;3.97;2.30;;;29.70;51.70;;;;;;5074081;28;20208;-63
2022/06/15 11:02:10;;;;;;;2.97;1.73;;;29.50;50.00;;;;;;5073678;28;20204;-61
2022/06/15 11:04:50;;;;;;;3.17;2.00;;;29.50;48.10;;;;;;5075765;28;20219;-61
2022/06/15 11:07:28;;;;;;;2.65;1.90;;;29.40;49.90;;;;;;5077253;28;20284;-61
2022/06/15 11:10:10;;;;;;;2.78;1.92;;;29.60;51.00;;;;;;5090568;22;20240;-67
2022/06/15 11:12:41;;;;;;;3.97;1.88;;;29.70;50.80;;;;;;5067214;28;20204;-65
2022/06/15 11:15:25;;;;;;;2.47;2.15;;;29.80;50.70;;;;;;5074278;28;20205;-64
2022/06/15 11:18:03;;;;;;;9.57;6.57;;;29.80;50.50;;;;;;5074622;28;20244;-65
2022/06/15 11:20:40;;;;;;;4.63;1.80;;;29.90;49.80;;;;;;5074085;28;20229;-65
2022/06/15 11:23:14;;;;;;;2.88;1.90;;;30.00;48.70;;;;;;5074081;28;20244;-65
2022/06/15 11:25:46;;;;;;;4.13;2.10;;;30.20;49.40;;;;;;5074035;28;20221;-65
2022/06/15 11:28:19;;;;;;;3.05;1.90;;;30.40;48.40;;;;;;5074197;28;20688;-65
2022/06/15 11:30:53;;;;;;;2.08;1.42;;;30.50;48.00;;;;;;5074406;28;20293;-66
2022/06/15 11:33:26;;;;;;;6.72;1.65;;;30.60;46.50;;;;;;5074313;28;20200;-65
2022/06/15 11:36:03;;;;;;;3.30;1.48;;;30.60;44.10;;;;;;5074473;28;20598;-66
2022/06/15 11:38:41;;;;;;;1.92;1.40;;;30.70;46.40;;;;;;5074304;28;20200;-65
2022/06/15 11:41:21;;;;;;;2.55;1.50;;;30.80;44.20;;;;;;5074449;28;20224;-65
2022/06/15 11:43:50;;;;;;;1.60;1.50;;;30.70;44.70;;;;;;5074482;28;20208;-65
2022/06/15 11:46:33;;;;;;;5.35;1.58;;;30.70;44.90;;;;;;5073694;28;20244;-66
2022/06/15 11:49:22;;;;;;;3.17;1.70;;;30.70;44.30;;;;;;5073894;28;20680;-66
2022/06/15 11:52:07;;;;;;;5.03;1.65;;;30.80;47.50;;;;;;5074324;28;20216;-66
2022/06/15 11:54:54;;;;;;;6.70;2.40;;;30.90;47.40;;;;;;5076092;28;20212;-66
2022/06/15 11:57:30;;;;;;;2.28;1.55;;;31.10;47.10;;;;;;5074839;28;20296;-65
2022/06/15 12:00:09;;;;;;;5.43;1.70;;;31.20;46.50;;;;;;5073946;28;20723;-65
2022/06/15 12:02:45;;;;;;;5.50;1.63;;;31.30;45.40;;;;;;5073505;28;20671;-66
2022/06/15 12:05:31;;;;;;;2.40;2.10;;;31.20;46.20;;;;;;5074322;28;20205;-67
2022/06/15 12:08:11;;;;;;;3.15;1.50;;;31.10;46.30;;;;;;5076899;28;20211;-67
2022/06/15 12:10:45;;;;;;;2.33;1.60;;;31.00;44.80;;;;;;5079660;28;20232;-67
2022/06/15 12:13:25;;;;;;;2.28;1.42;;;31.00;45.10;;;;;;5078682;28;20208;-67
2022/06/15 12:15:56;;;;;;;4.00;1.52;;;31.20;43.90;;;;;;5076194;28;20208;-66
2022/06/15 12:18:41;;;;;;;1.70;1.40;;;31.30;44.20;;;;;;5076982;28;20628;-67
2022/06/15 12:21:17;;;;;;;4.07;1.55;;;31.40;44.30;;;;;;5074362;28;20842;-67
2022/06/15 12:23:56;;;;;;;2.03;1.52;;;31.60;44.30;;;;;;5074071;28;20213;-66
2022/06/15 12:26:34;;;;;;;2.58;1.60;;;31.60;43.40;;;;;;5074004;28;20329;-67
2022/06/15 12:29:07;;;;;;;1.90;1.40;;;31.70;43.80;;;;;;5073777;28;20212;-66
2022/06/15 12:31:45;;;;;;;2.90;1.10;;;31.80;42.90;;;;;;5073505;28;20224;-67
2022/06/15 12:34:18;;;;;;;2.17;1.23;;;31.60;41.80;;;;;;5073297;28;20676;-67
2022/06/15 12:36:53;;;;;;;7.10;1.42;;;31.60;42.20;;;;;;5073756;28;20204;-68
2022/06/15 12:39:25;;;;;;;3.08;1.40;;;31.40;42.80;;;;;;5073355;28;20232;-68
2022/06/15 12:42:12;;;;;;;3.00;1.23;;;31.30;42.90;;;;;;5073165;28;20591;-66
2022/06/15 12:44:52;;;;;;;2.55;1.33;;;31.20;43.40;;;;;;5072778;28;20211;-66
2022/06/15 12:47:21;;;;;;;2.65;1.55;;;31.10;43.60;;;;;;5072903;28;20224;-66
2022/06/15 12:50:13;;;;;;;2.22;1.40;;;31.20;42.20;;;;;;5072980;28;20229;-66
2022/06/15 12:52:48;;;;;;;1.67;1.40;;;31.20;41.30;;;;;;5072356;28;20208;-66
2022/06/15 12:55:24;;;;;;;2.50;1.50;;;31.10;43.50;;;;;;5072459;28;20209;-66
2022/06/15 12:57:56;;;;;;;2.15;1.40;;;31.20;44.70;;;;;;5072744;28;20208;-67
2022/06/15 13:00:31;;;;;;;2.60;1.40;;;31.40;43.50;;;;;;5072568;28;20236;-66
2022/06/15 13:03:11;;;;;;;2.08;1.27;;;31.50;41.90;;;;;;5071964;28;20204;-67
2022/06/15 13:05:39;;;;;;;1.70;1.30;;;31.70;42.00;;;;;;5071973;28;20676;-67
2022/06/15 13:08:33;;;;;;;2.35;1.05;;;31.80;41.90;;;;;;5072565;28;20205;-67
2022/06/15 13:11:09;;;;;;;1.23;1.00;;;31.90;41.00;;;;;;5072018;28;20282;-67
2022/06/15 13:13:39;;;;;;;3.05;1.40;;;32.10;39.90;;;;;;5072244;28;20209;-67
2022/06/15 13:16:08;;;;;;;2.33;1.20;;;32.30;39.20;;;;;;5072036;28;20201;-67
2022/06/15 13:18:43;;;;;;;1.70;0.98;;;32.40;38.10;;;;;;5072191;28;20237;-66
2022/06/15 13:21:10;;;;;;;5.70;5.18;;;32.50;38.80;;;;;;5071675;28;20617;-67